sensor_id;sensor_type;location;lat;lon;timestamp;P1;durP1;ratioP1;P2;durP2;ratioP2
36457;SDS011;22480;50.546;12.292;2023-03-19T00:01:51;12.15;;;6.63;;
36457;SDS011;22480;50.546;12.292;2023-03-19T00:04:17;13.10;;;8.48;;
36457;SDS011;22480;50.546;12.292;2023-03-19T00:06:43;11.32;;;7.82;;
36457;SDS011;22480;50.546;12.292;2023-03-19T00:09:09;13.18;;;7.57;;
36457;SDS011;22480;50.546;12.292;2023-03-19T00:11:35;13.48;;;7.15;;
36457;SDS011;22480;50.546;12.292;2023-03-19T00:14:00;11.00;;;7.20;;
36457;SDS011;22480;50.546;12.292;2023-03-19T00:16:26;9.50;;;6.63;;
36457;SDS011;22480;50.546;12.292;2023-03-19T00:18:52;12.43;;;6.95;;
36457;SDS011;22480;50.546;12.292;2023-03-19T00:21:19;12.35;;;7.68;;
36457;SDS011;22480;50.546;12.292;2023-03-19T00:23:45;11.73;;;7.55;;
36457;SDS011;22480;50.546;12.292;2023-03-19T00:26:11;13.18;;;7.95;;
36457;SDS011;22480;50.546;12.292;2023-03-19T00:28:38;11.20;;;7.45;;
36457;SDS011;22480;50.546;12.292;2023-03-19T00:31:11;10.40;;;7.15;;
36457;SDS011;22480;50.546;12.292;2023-03-19T00:33:38;13.40;;;8.25;;
36457;SDS011;22480;50.546;12.292;2023-03-19T00:36:04;11.30;;;7.40;;
36457;SDS011;22480;50.546;12.292;2023-03-19T00:38:34;16.65;;;8.55;;
36457;SDS011;22480;50.546;12.292;2023-03-19T00:41:03;11.68;;;7.43;;
36457;SDS011;22480;50.546;12.292;2023-03-19T00:43:30;12.50;;;7.80;;
36457;SDS011;22480;50.546;12.292;2023-03-19T00:45:56;14.52;;;7.88;;
36457;SDS011;22480;50.546;12.292;2023-03-19T00:48:22;15.00;;;8.77;;
36457;SDS011;22480;50.546;12.292;2023-03-19T00:50:48;12.48;;;8.25;;
36457;SDS011;22480;50.546;12.292;2023-03-19T00:53:14;14.15;;;8.30;;
36457;SDS011;22480;50.546;12.292;2023-03-19T00:55:40;16.08;;;8.30;;
36457;SDS011;22480;50.546;12.292;2023-03-19T00:58:06;14.25;;;8.85;;
36457;SDS011;22480;50.546;12.292;2023-03-19T01:00:34;13.13;;;8.52;;
36457;SDS011;22480;50.546;12.292;2023-03-19T01:03:02;15.00;;;9.13;;
36457;SDS011;22480;50.546;12.292;2023-03-19T01:05:28;13.15;;;8.43;;
36457;SDS011;22480;50.546;12.292;2023-03-19T01:07:54;14.40;;;9.00;;
36457;SDS011;22480;50.546;12.292;2023-03-19T01:10:21;16.90;;;9.10;;
36457;SDS011;22480;50.546;12.292;2023-03-19T01:12:48;14.68;;;8.88;;
36457;SDS011;22480;50.546;12.292;2023-03-19T01:15:15;13.43;;;9.38;;
36457;SDS011;22480;50.546;12.292;2023-03-19T01:17:41;15.07;;;9.38;;
36457;SDS011;22480;50.546;12.292;2023-03-19T01:20:07;15.55;;;8.75;;
36457;SDS011;22480;50.546;12.292;2023-03-19T01:22:37;18.75;;;8.90;;
36457;SDS011;22480;50.546;12.292;2023-03-19T01:27:35;14.70;;;10.05;;
36457;SDS011;22480;50.546;12.292;2023-03-19T01:30:02;16.90;;;10.43;;
36457;SDS011;22480;50.546;12.292;2023-03-19T01:32:54;13.90;;;8.55;;
36457;SDS011;22480;50.546;12.292;2023-03-19T01:35:33;13.40;;;9.27;;
36457;SDS011;22480;50.546;12.292;2023-03-19T01:37:58;15.48;;;8.52;;
36457;SDS011;22480;50.546;12.292;2023-03-19T01:40:24;13.85;;;9.70;;
36457;SDS011;22480;50.546;12.292;2023-03-19T01:42:51;15.45;;;9.00;;
36457;SDS011;22480;50.546;12.292;2023-03-19T01:45:41;13.50;;;8.27;;
36457;SDS011;22480;50.546;12.292;2023-03-19T01:48:36;13.02;;;7.97;;
36457;SDS011;22480;50.546;12.292;2023-03-19T01:51:08;14.35;;;8.65;;
36457;SDS011;22480;50.546;12.292;2023-03-19T01:53:55;13.48;;;8.48;;
36457;SDS011;22480;50.546;12.292;2023-03-19T01:56:44;14.23;;;8.13;;
36457;SDS011;22480;50.546;12.292;2023-03-19T01:59:26;13.52;;;8.38;;
36457;SDS011;22480;50.546;12.292;2023-03-19T02:02:02;13.90;;;8.48;;
36457;SDS011;22480;50.546;12.292;2023-03-19T02:04:30;13.38;;;8.52;;
36457;SDS011;22480;50.546;12.292;2023-03-19T02:06:57;12.18;;;7.93;;
36457;SDS011;22480;50.546;12.292;2023-03-19T02:09:25;12.75;;;8.02;;
36457;SDS011;22480;50.546;12.292;2023-03-19T02:11:52;18.63;;;8.68;;
36457;SDS011;22480;50.546;12.292;2023-03-19T02:14:19;16.42;;;9.30;;
36457;SDS011;22480;50.546;12.292;2023-03-19T02:16:45;14.63;;;8.63;;
36457;SDS011;22480;50.546;12.292;2023-03-19T02:19:12;17.58;;;8.95;;
36457;SDS011;22480;50.546;12.292;2023-03-19T02:21:46;15.55;;;9.43;;
36457;SDS011;22480;50.546;12.292;2023-03-19T02:24:19;14.65;;;8.57;;
36457;SDS011;22480;50.546;12.292;2023-03-19T02:27:06;15.20;;;8.65;;
36457;SDS011;22480;50.546;12.292;2023-03-19T02:29:35;12.63;;;8.75;;
36457;SDS011;22480;50.546;12.292;2023-03-19T02:32:02;15.20;;;9.70;;
36457;SDS011;22480;50.546;12.292;2023-03-19T02:34:32;14.45;;;8.70;;
36457;SDS011;22480;50.546;12.292;2023-03-19T02:37:02;14.48;;;8.13;;
36457;SDS011;22480;50.546;12.292;2023-03-19T02:39:34;14.80;;;8.45;;
36457;SDS011;22480;50.546;12.292;2023-03-19T02:42:11;14.18;;;8.68;;
36457;SDS011;22480;50.546;12.292;2023-03-19T02:44:39;15.30;;;8.90;;
36457;SDS011;22480;50.546;12.292;2023-03-19T02:47:04;12.90;;;7.82;;
36457;SDS011;22480;50.546;12.292;2023-03-19T02:49:30;15.93;;;9.68;;
36457;SDS011;22480;50.546;12.292;2023-03-19T02:51:56;14.30;;;9.02;;
36457;SDS011;22480;50.546;12.292;2023-03-19T02:54:22;15.38;;;9.20;;
36457;SDS011;22480;50.546;12.292;2023-03-19T02:56:48;17.25;;;8.38;;
36457;SDS011;22480;50.546;12.292;2023-03-19T02:59:14;18.40;;;9.63;;
36457;SDS011;22480;50.546;12.292;2023-03-19T03:01:40;13.60;;;8.38;;
36457;SDS011;22480;50.546;12.292;2023-03-19T03:04:06;16.77;;;8.45;;
36457;SDS011;22480;50.546;12.292;2023-03-19T03:06:32;17.10;;;8.63;;
36457;SDS011;22480;50.546;12.292;2023-03-19T03:09:00;15.63;;;9.05;;
36457;SDS011;22480;50.546;12.292;2023-03-19T03:11:26;13.02;;;9.07;;
36457;SDS011;22480;50.546;12.292;2023-03-19T03:13:51;16.30;;;8.85;;
36457;SDS011;22480;50.546;12.292;2023-03-19T03:16:17;15.13;;;8.73;;
36457;SDS011;22480;50.546;12.292;2023-03-19T03:18:43;16.02;;;9.50;;
36457;SDS011;22480;50.546;12.292;2023-03-19T03:21:08;14.32;;;9.18;;
36457;SDS011;22480;50.546;12.292;2023-03-19T03:23:34;19.23;;;9.23;;
36457;SDS011;22480;50.546;12.292;2023-03-19T03:26:01;15.02;;;8.95;;
36457;SDS011;22480;50.546;12.292;2023-03-19T03:28:27;11.68;;;8.07;;
36457;SDS011;22480;50.546;12.292;2023-03-19T03:30:59;17.88;;;9.00;;
36457;SDS011;22480;50.546;12.292;2023-03-19T03:33:26;13.90;;;8.80;;
36457;SDS011;22480;50.546;12.292;2023-03-19T03:35:52;15.77;;;9.82;;
36457;SDS011;22480;50.546;12.292;2023-03-19T03:38:18;14.50;;;8.68;;
36457;SDS011;22480;50.546;12.292;2023-03-19T03:40:44;16.45;;;9.45;;
36457;SDS011;22480;50.546;12.292;2023-03-19T03:43:13;13.32;;;8.80;;
36457;SDS011;22480;50.546;12.292;2023-03-19T03:45:39;15.23;;;8.93;;
36457;SDS011;22480;50.546;12.292;2023-03-19T03:48:05;12.40;;;8.45;;
36457;SDS011;22480;50.546;12.292;2023-03-19T03:50:31;14.73;;;8.65;;
36457;SDS011;22480;50.546;12.292;2023-03-19T03:53:02;15.52;;;8.55;;
36457;SDS011;22480;50.546;12.292;2023-03-19T03:55:29;13.52;;;8.55;;
36457;SDS011;22480;50.546;12.292;2023-03-19T03:57:56;12.93;;;8.88;;
36457;SDS011;22480;50.546;12.292;2023-03-19T04:00:22;13.48;;;8.82;;
36457;SDS011;22480;50.546;12.292;2023-03-19T04:02:48;14.35;;;9.10;;
36457;SDS011;22480;50.546;12.292;2023-03-19T04:05:14;14.88;;;8.55;;
36457;SDS011;22480;50.546;12.292;2023-03-19T04:07:41;14.05;;;8.35;;
36457;SDS011;22480;50.546;12.292;2023-03-19T04:10:07;17.55;;;8.95;;
36457;SDS011;22480;50.546;12.292;2023-03-19T04:12:35;16.85;;;9.75;;
36457;SDS011;22480;50.546;12.292;2023-03-19T04:15:02;14.18;;;8.27;;
36457;SDS011;22480;50.546;12.292;2023-03-19T04:17:29;13.23;;;9.48;;
36457;SDS011;22480;50.546;12.292;2023-03-19T04:19:55;10.68;;;7.78;;
36457;SDS011;22480;50.546;12.292;2023-03-19T04:22:21;15.25;;;9.13;;
36457;SDS011;22480;50.546;12.292;2023-03-19T04:24:46;15.18;;;8.38;;
36457;SDS011;22480;50.546;12.292;2023-03-19T04:27:12;14.88;;;9.05;;
36457;SDS011;22480;50.546;12.292;2023-03-19T04:29:39;12.45;;;7.97;;
36457;SDS011;22480;50.546;12.292;2023-03-19T04:32:06;15.73;;;8.38;;
36457;SDS011;22480;50.546;12.292;2023-03-19T04:34:32;16.73;;;8.80;;
36457;SDS011;22480;50.546;12.292;2023-03-19T04:36:57;12.93;;;8.63;;
36457;SDS011;22480;50.546;12.292;2023-03-19T04:39:23;13.70;;;8.57;;
36457;SDS011;22480;50.546;12.292;2023-03-19T04:41:50;15.77;;;8.13;;
36457;SDS011;22480;50.546;12.292;2023-03-19T04:44:25;15.82;;;7.70;;
36457;SDS011;22480;50.546;12.292;2023-03-19T04:46:52;11.98;;;7.80;;
36457;SDS011;22480;50.546;12.292;2023-03-19T04:49:20;16.73;;;8.52;;
36457;SDS011;22480;50.546;12.292;2023-03-19T04:51:47;12.43;;;8.05;;
36457;SDS011;22480;50.546;12.292;2023-03-19T04:54:13;17.00;;;8.57;;
36457;SDS011;22480;50.546;12.292;2023-03-19T04:56:39;14.52;;;9.20;;
36457;SDS011;22480;50.546;12.292;2023-03-19T04:59:06;12.35;;;7.57;;
36457;SDS011;22480;50.546;12.292;2023-03-19T05:01:32;14.18;;;8.57;;
36457;SDS011;22480;50.546;12.292;2023-03-19T05:04:02;13.18;;;8.07;;
36457;SDS011;22480;50.546;12.292;2023-03-19T05:06:31;19.58;;;9.38;;
36457;SDS011;22480;50.546;12.292;2023-03-19T05:08:57;14.27;;;8.25;;
36457;SDS011;22480;50.546;12.292;2023-03-19T05:11:23;13.90;;;8.77;;
36457;SDS011;22480;50.546;12.292;2023-03-19T05:14:10;12.05;;;7.70;;
36457;SDS011;22480;50.546;12.292;2023-03-19T05:16:56;13.18;;;7.75;;
36457;SDS011;22480;50.546;12.292;2023-03-19T05:19:24;14.05;;;8.43;;
36457;SDS011;22480;50.546;12.292;2023-03-19T05:21:50;10.70;;;7.50;;
36457;SDS011;22480;50.546;12.292;2023-03-19T05:24:21;10.77;;;7.70;;
36457;SDS011;22480;50.546;12.292;2023-03-19T05:26:48;12.45;;;8.05;;
36457;SDS011;22480;50.546;12.292;2023-03-19T05:29:34;15.95;;;8.35;;
36457;SDS011;22480;50.546;12.292;2023-03-19T05:32:20;14.68;;;8.25;;
36457;SDS011;22480;50.546;12.292;2023-03-19T05:34:46;12.63;;;7.78;;
36457;SDS011;22480;50.546;12.292;2023-03-19T05:37:12;15.20;;;7.65;;
36457;SDS011;22480;50.546;12.292;2023-03-19T05:39:40;13.27;;;8.00;;
36457;SDS011;22480;50.546;12.292;2023-03-19T05:42:07;14.52;;;8.75;;
36457;SDS011;22480;50.546;12.292;2023-03-19T05:44:34;12.73;;;8.05;;
36457;SDS011;22480;50.546;12.292;2023-03-19T05:47:18;12.93;;;8.32;;
36457;SDS011;22480;50.546;12.292;2023-03-19T05:49:49;13.68;;;7.68;;
36457;SDS011;22480;50.546;12.292;2023-03-19T05:52:16;12.70;;;7.78;;
36457;SDS011;22480;50.546;12.292;2023-03-19T05:54:42;16.05;;;8.77;;
36457;SDS011;22480;50.546;12.292;2023-03-19T05:57:24;13.02;;;8.10;;
36457;SDS011;22480;50.546;12.292;2023-03-19T06:00:06;12.02;;;8.30;;
36457;SDS011;22480;50.546;12.292;2023-03-19T06:02:33;13.73;;;8.00;;
36457;SDS011;22480;50.546;12.292;2023-03-19T06:05:15;11.32;;;7.75;;
36457;SDS011;22480;50.546;12.292;2023-03-19T06:07:41;12.82;;;7.55;;
36457;SDS011;22480;50.546;12.292;2023-03-19T06:10:13;13.07;;;7.30;;
36457;SDS011;22480;50.546;12.292;2023-03-19T06:12:39;15.38;;;7.97;;
36457;SDS011;22480;50.546;12.292;2023-03-19T06:15:37;12.25;;;7.72;;
36457;SDS011;22480;50.546;12.292;2023-03-19T06:18:16;10.75;;;7.40;;
36457;SDS011;22480;50.546;12.292;2023-03-19T06:20:42;11.70;;;7.95;;
36457;SDS011;22480;50.546;12.292;2023-03-19T06:23:10;11.88;;;7.22;;
36457;SDS011;22480;50.546;12.292;2023-03-19T06:25:36;17.25;;;9.10;;
36457;SDS011;22480;50.546;12.292;2023-03-19T06:28:02;19.35;;;11.57;;
36457;SDS011;22480;50.546;12.292;2023-03-19T06:30:34;14.90;;;8.65;;
36457;SDS011;22480;50.546;12.292;2023-03-19T06:33:04;10.33;;;7.70;;
36457;SDS011;22480;50.546;12.292;2023-03-19T06:35:31;12.30;;;7.72;;
36457;SDS011;22480;50.546;12.292;2023-03-19T06:37:57;12.20;;;8.00;;
36457;SDS011;22480;50.546;12.292;2023-03-19T06:40:23;17.60;;;10.32;;
36457;SDS011;22480;50.546;12.292;2023-03-19T06:42:48;18.05;;;10.88;;
36457;SDS011;22480;50.546;12.292;2023-03-19T06:45:15;16.05;;;8.88;;
36457;SDS011;22480;50.546;12.292;2023-03-19T06:47:42;13.98;;;9.00;;
36457;SDS011;22480;50.546;12.292;2023-03-19T06:50:09;15.27;;;9.43;;
36457;SDS011;22480;50.546;12.292;2023-03-19T06:52:36;19.98;;;10.52;;
36457;SDS011;22480;50.546;12.292;2023-03-19T06:55:03;14.20;;;9.82;;
36457;SDS011;22480;50.546;12.292;2023-03-19T06:57:30;12.73;;;8.52;;
36457;SDS011;22480;50.546;12.292;2023-03-19T06:59:56;13.18;;;8.43;;
36457;SDS011;22480;50.546;12.292;2023-03-19T07:02:21;13.02;;;8.23;;
36457;SDS011;22480;50.546;12.292;2023-03-19T07:04:47;11.52;;;8.25;;
36457;SDS011;22480;50.546;12.292;2023-03-19T07:07:13;14.13;;;8.63;;
36457;SDS011;22480;50.546;12.292;2023-03-19T07:09:39;12.40;;;8.52;;
36457;SDS011;22480;50.546;12.292;2023-03-19T07:12:04;13.95;;;8.95;;
36457;SDS011;22480;50.546;12.292;2023-03-19T07:14:31;12.55;;;8.93;;
36457;SDS011;22480;50.546;12.292;2023-03-19T07:16:57;11.25;;;8.32;;
36457;SDS011;22480;50.546;12.292;2023-03-19T07:19:23;13.27;;;8.82;;
36457;SDS011;22480;50.546;12.292;2023-03-19T07:21:49;14.65;;;8.88;;
36457;SDS011;22480;50.546;12.292;2023-03-19T07:24:14;13.85;;;9.00;;
36457;SDS011;22480;50.546;12.292;2023-03-19T07:26:40;13.18;;;8.68;;
36457;SDS011;22480;50.546;12.292;2023-03-19T07:29:07;14.57;;;8.43;;
36457;SDS011;22480;50.546;12.292;2023-03-19T07:31:33;12.02;;;7.60;;
36457;SDS011;22480;50.546;12.292;2023-03-19T07:33:58;12.05;;;8.32;;
36457;SDS011;22480;50.546;12.292;2023-03-19T07:36:24;13.13;;;7.75;;
36457;SDS011;22480;50.546;12.292;2023-03-19T07:38:50;14.30;;;8.45;;
36457;SDS011;22480;50.546;12.292;2023-03-19T07:41:16;10.60;;;7.85;;
36457;SDS011;22480;50.546;12.292;2023-03-19T07:43:42;11.45;;;8.02;;
36457;SDS011;22480;50.546;12.292;2023-03-19T07:46:07;11.30;;;7.47;;
36457;SDS011;22480;50.546;12.292;2023-03-19T07:48:34;12.45;;;7.53;;
36457;SDS011;22480;50.546;12.292;2023-03-19T07:50:59;11.63;;;7.68;;
36457;SDS011;22480;50.546;12.292;2023-03-19T07:53:25;11.13;;;7.72;;
36457;SDS011;22480;50.546;12.292;2023-03-19T07:55:51;10.43;;;7.95;;
36457;SDS011;22480;50.546;12.292;2023-03-19T07:58:17;12.50;;;7.85;;
36457;SDS011;22480;50.546;12.292;2023-03-19T08:00:43;12.88;;;8.93;;
36457;SDS011;22480;50.546;12.292;2023-03-19T08:03:09;12.88;;;7.38;;
36457;SDS011;22480;50.546;12.292;2023-03-19T08:05:35;12.27;;;7.53;;
36457;SDS011;22480;50.546;12.292;2023-03-19T08:08:01;11.65;;;8.63;;
36457;SDS011;22480;50.546;12.292;2023-03-19T08:10:27;16.27;;;8.60;;
36457;SDS011;22480;50.546;12.292;2023-03-19T08:12:53;13.20;;;8.65;;
36457;SDS011;22480;50.546;12.292;2023-03-19T08:15:18;14.52;;;8.57;;
36457;SDS011;22480;50.546;12.292;2023-03-19T08:17:44;13.50;;;8.52;;
36457;SDS011;22480;50.546;12.292;2023-03-19T08:20:11;12.45;;;7.30;;
36457;SDS011;22480;50.546;12.292;2023-03-19T08:22:40;19.55;;;7.50;;
36457;SDS011;22480;50.546;12.292;2023-03-19T08:25:07;14.13;;;9.00;;
36457;SDS011;22480;50.546;12.292;2023-03-19T08:27:33;15.80;;;9.63;;
36457;SDS011;22480;50.546;12.292;2023-03-19T08:30:00;16.35;;;8.20;;
36457;SDS011;22480;50.546;12.292;2023-03-19T08:32:28;12.32;;;7.40;;
36457;SDS011;22480;50.546;12.292;2023-03-19T08:34:54;16.80;;;8.27;;
36457;SDS011;22480;50.546;12.292;2023-03-19T08:37:20;11.43;;;7.10;;
36457;SDS011;22480;50.546;12.292;2023-03-19T08:39:46;11.85;;;7.22;;
36457;SDS011;22480;50.546;12.292;2023-03-19T08:42:13;17.27;;;8.25;;
36457;SDS011;22480;50.546;12.292;2023-03-19T08:44:39;12.60;;;8.25;;
36457;SDS011;22480;50.546;12.292;2023-03-19T08:47:05;16.80;;;7.75;;
36457;SDS011;22480;50.546;12.292;2023-03-19T08:49:31;11.52;;;7.32;;
36457;SDS011;22480;50.546;12.292;2023-03-19T08:51:56;17.33;;;9.68;;
36457;SDS011;22480;50.546;12.292;2023-03-19T08:54:22;15.30;;;9.25;;
36457;SDS011;22480;50.546;12.292;2023-03-19T08:56:48;9.63;;;6.45;;
36457;SDS011;22480;50.546;12.292;2023-03-19T08:59:15;9.75;;;6.47;;
36457;SDS011;22480;50.546;12.292;2023-03-19T09:01:40;13.52;;;7.70;;
36457;SDS011;22480;50.546;12.292;2023-03-19T09:04:06;13.65;;;7.65;;
36457;SDS011;22480;50.546;12.292;2023-03-19T09:06:32;11.40;;;8.02;;
36457;SDS011;22480;50.546;12.292;2023-03-19T09:08:57;9.48;;;6.20;;
36457;SDS011;22480;50.546;12.292;2023-03-19T09:11:23;11.68;;;6.70;;
36457;SDS011;22480;50.546;12.292;2023-03-19T09:13:49;10.02;;;6.65;;
36457;SDS011;22480;50.546;12.292;2023-03-19T09:16:15;10.85;;;6.55;;
36457;SDS011;22480;50.546;12.292;2023-03-19T09:18:40;10.25;;;6.63;;
36457;SDS011;22480;50.546;12.292;2023-03-19T09:21:06;10.98;;;6.95;;
36457;SDS011;22480;50.546;12.292;2023-03-19T09:23:32;10.65;;;6.63;;
36457;SDS011;22480;50.546;12.292;2023-03-19T09:25:58;12.50;;;6.30;;
36457;SDS011;22480;50.546;12.292;2023-03-19T09:28:23;12.05;;;7.47;;
36457;SDS011;22480;50.546;12.292;2023-03-19T09:30:50;9.95;;;6.72;;
36457;SDS011;22480;50.546;12.292;2023-03-19T09:33:17;11.60;;;6.30;;
36457;SDS011;22480;50.546;12.292;2023-03-19T09:35:48;11.95;;;6.43;;
36457;SDS011;22480;50.546;12.292;2023-03-19T09:38:14;9.55;;;5.93;;
36457;SDS011;22480;50.546;12.292;2023-03-19T09:40:41;8.85;;;6.00;;
36457;SDS011;22480;50.546;12.292;2023-03-19T09:45:43;8.52;;;5.72;;
36457;SDS011;22480;50.546;12.292;2023-03-19T09:51:00;9.03;;;5.43;;
36457;SDS011;22480;50.546;12.292;2023-03-19T09:53:35;8.57;;;5.80;;
36457;SDS011;22480;50.546;12.292;2023-03-19T09:56:07;10.68;;;6.65;;
36457;SDS011;22480;50.546;12.292;2023-03-19T09:58:38;9.13;;;5.82;;
36457;SDS011;22480;50.546;12.292;2023-03-19T10:01:04;8.98;;;5.90;;
36457;SDS011;22480;50.546;12.292;2023-03-19T10:06:06;10.23;;;5.97;;
36457;SDS011;22480;50.546;12.292;2023-03-19T10:08:43;9.10;;;6.43;;
36457;SDS011;22480;50.546;12.292;2023-03-19T10:17:18;12.60;;;7.82;;
36457;SDS011;22480;50.546;12.292;2023-03-19T10:19:54;9.80;;;6.53;;
36457;SDS011;22480;50.546;12.292;2023-03-19T10:22:56;12.13;;;6.22;;
36457;SDS011;22480;50.546;12.292;2023-03-19T10:25:26;10.10;;;6.10;;
36457;SDS011;22480;50.546;12.292;2023-03-19T10:28:00;7.80;;;6.00;;
36457;SDS011;22480;50.546;12.292;2023-03-19T10:30:41;7.55;;;6.18;;
36457;SDS011;22480;50.546;12.292;2023-03-19T10:33:22;9.82;;;5.80;;
36457;SDS011;22480;50.546;12.292;2023-03-19T10:35:54;7.78;;;5.03;;
36457;SDS011;22480;50.546;12.292;2023-03-19T10:38:25;7.80;;;5.55;;
36457;SDS011;22480;50.546;12.292;2023-03-19T10:43:27;9.00;;;5.75;;
36457;SDS011;22480;50.546;12.292;2023-03-19T10:45:56;11.15;;;6.00;;
36457;SDS011;22480;50.546;12.292;2023-03-19T10:48:23;8.52;;;5.57;;
36457;SDS011;22480;50.546;12.292;2023-03-19T10:53:33;6.47;;;5.30;;
36457;SDS011;22480;50.546;12.292;2023-03-19T10:56:14;9.15;;;5.43;;
36457;SDS011;22480;50.546;12.292;2023-03-19T10:58:54;8.77;;;5.38;;
36457;SDS011;22480;50.546;12.292;2023-03-19T11:01:21;6.68;;;5.13;;
36457;SDS011;22480;50.546;12.292;2023-03-19T11:03:56;9.63;;;6.25;;
36457;SDS011;22480;50.546;12.292;2023-03-19T11:06:27;7.85;;;5.15;;
36457;SDS011;22480;50.546;12.292;2023-03-19T11:11:32;4.72;;;3.20;;
36457;SDS011;22480;50.546;12.292;2023-03-19T11:14:24;6.50;;;4.18;;
36457;SDS011;22480;50.546;12.292;2023-03-19T11:17:03;3.75;;;2.92;;
36457;SDS011;22480;50.546;12.292;2023-03-19T11:19:52;5.30;;;3.70;;
36457;SDS011;22480;50.546;12.292;2023-03-19T11:22:26;5.22;;;3.00;;
36457;SDS011;22480;50.546;12.292;2023-03-19T11:24:58;8.65;;;3.38;;
36457;SDS011;22480;50.546;12.292;2023-03-19T11:27:30;6.85;;;3.35;;
36457;SDS011;22480;50.546;12.292;2023-03-19T11:29:59;6.60;;;3.05;;
36457;SDS011;22480;50.546;12.292;2023-03-19T11:35:00;10.88;;;5.25;;
36457;SDS011;22480;50.546;12.292;2023-03-19T11:46:09;4.68;;;2.75;;
36457;SDS011;22480;50.546;12.292;2023-03-19T11:49:07;5.78;;;2.88;;
36457;SDS011;22480;50.546;12.292;2023-03-19T11:56:47;4.40;;;2.33;;
36457;SDS011;22480;50.546;12.292;2023-03-19T12:05:15;5.10;;;2.15;;
36457;SDS011;22480;50.546;12.292;2023-03-19T12:18:42;3.17;;;1.67;;
36457;SDS011;22480;50.546;12.292;2023-03-19T12:31:42;6.25;;;3.10;;
36457;SDS011;22480;50.546;12.292;2023-03-19T12:34:30;8.50;;;5.20;;
36457;SDS011;22480;50.546;12.292;2023-03-19T12:40:04;4.30;;;3.08;;
36457;SDS011;22480;50.546;12.292;2023-03-19T12:42:42;4.73;;;3.30;;
36457;SDS011;22480;50.546;12.292;2023-03-19T12:45:51;5.10;;;2.22;;
36457;SDS011;22480;50.546;12.292;2023-03-19T12:48:04;3.78;;;2.20;;
36457;SDS011;22480;50.546;12.292;2023-03-19T12:50:42;2.42;;;1.88;;
36457;SDS011;22480;50.546;12.292;2023-03-19T12:53:30;3.38;;;1.60;;
36457;SDS011;22480;50.546;12.292;2023-03-19T12:56:25;3.75;;;1.60;;
36457;SDS011;22480;50.546;12.292;2023-03-19T12:59:16;2.65;;;1.50;;
36457;SDS011;22480;50.546;12.292;2023-03-19T13:01:52;2.45;;;2.25;;
36457;SDS011;22480;50.546;12.292;2023-03-19T13:04:26;1.63;;;1.52;;
36457;SDS011;22480;50.546;12.292;2023-03-19T13:07:05;4.07;;;2.17;;
36457;SDS011;22480;50.546;12.292;2023-03-19T13:12:12;5.20;;;1.83;;
36457;SDS011;22480;50.546;12.292;2023-03-19T13:19:56;3.90;;;2.03;;
36457;SDS011;22480;50.546;12.292;2023-03-19T13:22:32;3.20;;;1.85;;
36457;SDS011;22480;50.546;12.292;2023-03-19T13:25:01;4.97;;;2.75;;
36457;SDS011;22480;50.546;12.292;2023-03-19T13:27:30;5.82;;;3.08;;
36457;SDS011;22480;50.546;12.292;2023-03-19T13:29:59;4.65;;;2.30;;
36457;SDS011;22480;50.546;12.292;2023-03-19T13:40:47;2.25;;;2.05;;
36457;SDS011;22480;50.546;12.292;2023-03-19T13:43:19;5.57;;;3.38;;
36457;SDS011;22480;50.546;12.292;2023-03-19T13:45:51;2.22;;;1.40;;
36457;SDS011;22480;50.546;12.292;2023-03-19T13:48:34;3.97;;;2.10;;
36457;SDS011;22480;50.546;12.292;2023-03-19T13:51:03;3.85;;;2.05;;
36457;SDS011;22480;50.546;12.292;2023-03-19T13:59:30;2.28;;;1.35;;
36457;SDS011;22480;50.546;12.292;2023-03-19T14:01:58;2.50;;;1.35;;
36457;SDS011;22480;50.546;12.292;2023-03-19T14:06:55;3.63;;;1.77;;
36457;SDS011;22480;50.546;12.292;2023-03-19T14:09:44;1.85;;;1.50;;
36457;SDS011;22480;50.546;12.292;2023-03-19T14:17:37;3.05;;;1.80;;
36457;SDS011;22480;50.546;12.292;2023-03-19T14:25:23;2.38;;;1.65;;
36457;SDS011;22480;50.546;12.292;2023-03-19T14:27:58;5.55;;;2.45;;
36457;SDS011;22480;50.546;12.292;2023-03-19T14:33:04;2.63;;;1.88;;
36457;SDS011;22480;50.546;12.292;2023-03-19T14:35:38;2.80;;;1.95;;
36457;SDS011;22480;50.546;12.292;2023-03-19T14:38:10;3.00;;;1.67;;
36457;SDS011;22480;50.546;12.292;2023-03-19T14:40:44;1.40;;;1.30;;
36457;SDS011;22480;50.546;12.292;2023-03-19T14:57:21;2.03;;;1.30;;
36457;SDS011;22480;50.546;12.292;2023-03-19T14:59:51;2.53;;;1.35;;
36457;SDS011;22480;50.546;12.292;2023-03-19T15:04:53;2.80;;;1.95;;
36457;SDS011;22480;50.546;12.292;2023-03-19T15:07:20;3.55;;;1.77;;
36457;SDS011;22480;50.546;12.292;2023-03-19T15:09:53;2.67;;;1.40;;
36457;SDS011;22480;50.546;12.292;2023-03-19T15:15:23;1.73;;;1.60;;
36457;SDS011;22480;50.546;12.292;2023-03-19T15:18:12;2.45;;;1.50;;
36457;SDS011;22480;50.546;12.292;2023-03-19T15:20:46;2.25;;;1.15;;
36457;SDS011;22480;50.546;12.292;2023-03-19T15:23:19;2.72;;;1.63;;
36457;SDS011;22480;50.546;12.292;2023-03-19T15:25:52;2.28;;;1.67;;
36457;SDS011;22480;50.546;12.292;2023-03-19T15:28:23;5.68;;;1.90;;
36457;SDS011;22480;50.546;12.292;2023-03-19T15:30:56;2.13;;;1.77;;
36457;SDS011;22480;50.546;12.292;2023-03-19T15:33:24;3.20;;;2.20;;
36457;SDS011;22480;50.546;12.292;2023-03-19T15:38:45;4.32;;;1.70;;
36457;SDS011;22480;50.546;12.292;2023-03-19T15:41:16;4.82;;;1.60;;
36457;SDS011;22480;50.546;12.292;2023-03-19T15:43:43;3.30;;;2.03;;
36457;SDS011;22480;50.546;12.292;2023-03-19T15:46:11;2.92;;;1.85;;
36457;SDS011;22480;50.546;12.292;2023-03-19T15:48:57;3.20;;;1.88;;
36457;SDS011;22480;50.546;12.292;2023-03-19T15:51:26;3.53;;;1.92;;
36457;SDS011;22480;50.546;12.292;2023-03-19T15:53:53;2.72;;;1.80;;
36457;SDS011;22480;50.546;12.292;2023-03-19T15:56:20;2.88;;;1.55;;
36457;SDS011;22480;50.546;12.292;2023-03-19T15:58:47;4.65;;;1.80;;
36457;SDS011;22480;50.546;12.292;2023-03-19T16:01:16;3.13;;;1.90;;
36457;SDS011;22480;50.546;12.292;2023-03-19T16:06:30;4.72;;;2.45;;
36457;SDS011;22480;50.546;12.292;2023-03-19T16:11:41;6.32;;;3.30;;
36457;SDS011;22480;50.546;12.292;2023-03-19T16:14:09;2.67;;;2.13;;
36457;SDS011;22480;50.546;12.292;2023-03-19T16:16:39;3.05;;;2.05;;
36457;SDS011;22480;50.546;12.292;2023-03-19T16:19:28;3.25;;;2.30;;
36457;SDS011;22480;50.546;12.292;2023-03-19T16:22:00;7.35;;;2.17;;
36457;SDS011;22480;50.546;12.292;2023-03-19T16:24:35;5.13;;;2.05;;
36457;SDS011;22480;50.546;12.292;2023-03-19T16:27:05;3.80;;;2.50;;
36457;SDS011;22480;50.546;12.292;2023-03-19T16:29:37;4.38;;;2.10;;
36457;SDS011;22480;50.546;12.292;2023-03-19T16:34:43;3.83;;;2.13;;
36457;SDS011;22480;50.546;12.292;2023-03-19T16:37:54;5.75;;;2.55;;
36457;SDS011;22480;50.546;12.292;2023-03-19T16:42:43;3.10;;;2.47;;
36457;SDS011;22480;50.546;12.292;2023-03-19T16:47:42;3.78;;;2.03;;
36457;SDS011;22480;50.546;12.292;2023-03-19T16:50:13;2.58;;;1.92;;
36457;SDS011;22480;50.546;12.292;2023-03-19T16:52:40;3.28;;;2.38;;
36457;SDS011;22480;50.546;12.292;2023-03-19T16:55:16;2.53;;;1.92;;
36457;SDS011;22480;50.546;12.292;2023-03-19T16:57:45;4.20;;;2.15;;
36457;SDS011;22480;50.546;12.292;2023-03-19T17:00:18;3.00;;;2.10;;
36457;SDS011;22480;50.546;12.292;2023-03-19T17:02:45;4.07;;;2.47;;
36457;SDS011;22480;50.546;12.292;2023-03-19T17:05:14;6.75;;;3.53;;
36457;SDS011;22480;50.546;12.292;2023-03-19T17:07:40;4.70;;;2.20;;